createdAt,value
2018-05-18T00:01:59.769Z,24.43
2018-05-18T00:04:30.760Z,25.23
2018-05-18T00:07:01.988Z,28.37
2018-05-18T00:09:32.963Z,25.37
2018-05-18T00:12:03.966Z,30.50
2018-05-18T00:14:34.959Z,30.07
2018-05-18T00:17:06.015Z,32.93
2018-05-18T00:19:36.950Z,30.13
2018-05-18T00:22:07.975Z,32.03
2018-05-18T00:24:41.440Z,28.27
2018-05-18T00:27:12.483Z,37.37
2018-05-18T00:29:43.455Z,29.67
2018-05-18T00:32:14.511Z,37.20
2018-05-18T00:34:45.525Z,31.63
2018-05-18T00:37:16.483Z,34.30
2018-05-18T00:39:47.502Z,29.83
2018-05-18T00:42:18.471Z,37.63
2018-05-18T00:44:49.571Z,32.77
2018-05-18T00:47:20.512Z,29.43
2018-05-18T00:49:51.523Z,32.43
2018-05-18T00:52:22.508Z,35.07
2018-05-18T00:54:53.553Z,34.33
2018-05-18T00:57:24.568Z,31.30
2018-05-18T00:59:55.585Z,33.10
2018-05-18T01:02:26.571Z,32.27
2018-05-18T01:04:57.594Z,32.93
2018-05-18T01:07:28.592Z,34.20
2018-05-18T01:09:59.616Z,34.00
2018-05-18T01:12:30.652Z,32.10
2018-05-18T01:15:01.636Z,29.57
2018-05-18T01:17:32.605Z,29.97
2018-05-18T01:20:03.586Z,30.67
2018-05-18T01:22:34.576Z,37.07
2018-05-18T01:25:05.605Z,33.30
2018-05-18T01:27:36.604Z,30.47
2018-05-18T01:30:07.656Z,30.23
2018-05-18T01:32:38.632Z,31.63
2018-05-18T01:35:09.630Z,33.83
2018-05-18T01:37:40.644Z,32.60
2018-05-18T01:40:11.679Z,31.53
2018-05-18T01:42:42.719Z,33.67
2018-05-18T01:45:13.712Z,31.80
2018-05-18T01:47:44.695Z,37.27
2018-05-18T01:50:15.747Z,34.17
2018-05-18T01:52:46.718Z,32.87
2018-05-18T01:55:17.764Z,34.23
2018-05-18T01:57:48.714Z,27.67
2018-05-18T02:00:19.761Z,33.90
2018-05-18T02:02:50.791Z,36.53
2018-05-18T02:05:21.848Z,32.73
2018-05-18T02:07:52.854Z,37.17
2018-05-18T02:10:23.875Z,34.20
2018-05-18T02:12:54.826Z,34.60
2018-05-18T02:15:25.817Z,33.27
2018-05-18T02:17:56.847Z,36.10
2018-05-18T02:20:27.889Z,33.43
2018-05-18T02:22:58.886Z,36.47
2018-05-18T02:25:29.847Z,37.40
2018-05-18T02:28:00.844Z,37.03
2018-05-18T02:30:31.780Z,36.63
2018-05-18T02:33:02.794Z,36.90
2018-05-18T02:35:40.905Z,38.73
2018-05-18T02:38:11.960Z,34.70
2018-05-18T02:40:42.986Z,36.53
2018-05-18T02:43:14.008Z,33.23
2018-05-18T02:45:45.029Z,33.70
2018-05-18T02:48:16.048Z,33.57
2018-05-18T02:50:47.044Z,35.20
2018-05-18T02:53:18.022Z,36.63
2018-05-18T02:55:48.972Z,33.07
2018-05-18T02:58:19.974Z,38.07
2018-05-18T03:00:50.987Z,36.47
2018-05-18T03:03:22.014Z,36.40
2018-05-18T03:05:53.033Z,39.47
2018-05-18T03:08:24.124Z,40.97
2018-05-18T03:10:55.099Z,37.33
2018-05-18T03:13:26.091Z,40.17
2018-05-18T03:15:57.098Z,39.70
2018-05-18T03:18:28.121Z,44.83
2018-05-18T03:20:59.122Z,38.07
2018-05-18T03:23:30.108Z,43.73
2018-05-18T03:26:01.150Z,47.07
2018-05-18T03:28:32.128Z,46.30
2018-05-18T03:31:03.125Z,42.17
2018-05-18T03:33:34.114Z,54.30
2018-05-18T03:36:05.091Z,47.10
2018-05-18T03:38:36.118Z,50.27
2018-05-18T03:41:07.150Z,38.93
2018-05-18T03:43:38.173Z,45.83
2018-05-18T03:46:09.133Z,42.90
2018-05-18T03:48:40.100Z,51.80
2018-05-18T03:51:11.198Z,42.37
2018-05-18T03:53:42.165Z,45.20
2018-05-18T03:56:13.365Z,45.23
2018-05-18T03:58:44.372Z,44.87
2018-05-18T04:01:27.609Z,47.47
2018-05-18T04:04:10.878Z,42.47
2018-05-18T04:06:53.998Z,40.57
2018-05-18T04:09:25.014Z,38.53
2018-05-18T04:11:56.064Z,37.60
2018-05-18T04:14:27.120Z,36.83
2018-05-18T04:16:58.114Z,37.90
2018-05-18T04:19:29.107Z,35.40
2018-05-18T04:22:00.120Z,30.63
2018-05-18T04:24:31.140Z,35.30
2018-05-18T04:27:02.122Z,32.83
2018-05-18T04:29:33.083Z,29.63
2018-05-18T04:32:04.098Z,33.07
2018-05-18T04:34:35.052Z,31.73
2018-05-18T04:37:06.078Z,30.07
2018-05-18T04:39:37.063Z,28.60
2018-05-18T04:42:08.084Z,33.03
2018-05-18T04:44:39.161Z,31.10
2018-05-18T04:47:10.145Z,30.07
2018-05-18T04:49:41.091Z,27.30
2018-05-18T04:52:12.110Z,26.80
2018-05-18T04:54:43.067Z,26.73
2018-05-18T04:57:14.104Z,27.40
2018-05-18T04:59:45.071Z,28.20
2018-05-18T05:02:16.058Z,26.90
2018-05-18T05:04:47.055Z,22.07
2018-05-18T05:07:18.082Z,22.53
2018-05-18T05:09:49.028Z,21.70
2018-05-18T05:12:20.072Z,25.97
2018-05-18T05:14:51.068Z,19.67
2018-05-18T05:17:22.047Z,25.73
2018-05-18T05:19:53.023Z,23.20
2018-05-18T05:22:24.052Z,19.63
2018-05-18T05:24:55.083Z,22.63
2018-05-18T05:27:26.070Z,18.93
2018-05-18T05:29:57.037Z,22.33
2018-05-18T05:32:28.038Z,22.53
2018-05-18T05:34:59.011Z,20.07
2018-05-18T05:37:30.050Z,20.93
2018-05-18T05:40:01.076Z,18.90
2018-05-18T05:42:32.062Z,20.40
2018-05-18T05:45:03.104Z,21.40
2018-05-18T05:47:34.069Z,18.83
2018-05-18T05:50:05.105Z,20.97
2018-05-18T05:52:36.106Z,17.83
2018-05-18T05:55:07.084Z,22.87
2018-05-18T05:57:38.072Z,20.00
2018-05-18T06:00:09.131Z,23.60
2018-05-18T06:02:40.144Z,18.90
2018-05-18T06:05:11.130Z,19.03
2018-05-18T06:07:42.128Z,18.53
2018-05-18T06:10:13.074Z,17.57
2018-05-18T06:12:44.115Z,16.47
2018-05-18T06:15:15.072Z,16.07
2018-05-18T06:17:46.044Z,15.93
2018-05-18T06:20:17.087Z,16.47
2018-05-18T06:22:48.060Z,15.67
2018-05-18T06:25:19.073Z,17.93
2018-05-18T06:27:50.036Z,15.90
2018-05-18T06:30:28.110Z,18.03
2018-05-18T06:32:59.080Z,21.23
2018-05-18T06:35:30.129Z,17.47
2018-05-18T06:38:01.147Z,21.67
2018-05-18T06:40:32.187Z,15.60
2018-05-18T06:43:03.171Z,17.30
2018-05-18T06:45:34.186Z,14.23
2018-05-18T06:48:05.156Z,15.38
2018-05-18T06:50:36.210Z,14.77
2018-05-18T06:53:07.199Z,16.77
2018-05-18T06:55:38.211Z,16.98
2018-05-18T06:58:09.233Z,13.52
2018-05-18T07:00:40.280Z,13.82
2018-05-18T07:03:11.280Z,14.23
2018-05-18T07:05:42.308Z,15.52
2018-05-18T07:08:13.288Z,14.80
2018-05-18T07:10:44.316Z,14.52
2018-05-18T07:13:15.248Z,14.50
2018-05-18T07:15:46.248Z,13.13
2018-05-18T07:18:17.231Z,16.37
2018-05-18T07:20:48.247Z,12.70
2018-05-18T07:23:19.262Z,13.32
2018-05-18T07:25:50.286Z,12.55
2018-05-18T07:28:21.335Z,15.50
2018-05-18T07:30:52.400Z,13.32
2018-05-18T07:33:23.485Z,13.35
2018-05-18T07:35:54.485Z,14.68
2018-05-18T07:38:25.459Z,14.50
2018-05-18T07:40:56.560Z,18.35
2018-05-18T07:43:27.574Z,12.23
2018-05-18T07:45:58.555Z,11.70
2018-05-18T07:48:29.636Z,12.10
2018-05-18T07:51:00.588Z,16.62
2018-05-18T07:53:31.701Z,13.48
2018-05-18T07:56:02.663Z,12.93
2018-05-18T07:58:33.686Z,20.25
2018-05-18T08:01:04.681Z,12.90
2018-05-18T08:03:35.700Z,15.20
2018-05-18T08:06:06.695Z,14.43
2018-05-18T08:08:37.737Z,14.35
2018-05-18T08:11:08.770Z,13.10
2018-05-18T08:13:39.813Z,13.27
2018-05-18T08:16:10.836Z,12.07
2018-05-18T08:18:41.876Z,12.88
2018-05-18T08:21:12.912Z,14.75
2018-05-18T08:23:43.906Z,12.52
2018-05-18T08:26:15.019Z,13.68
2018-05-18T08:28:58.374Z,13.40
2018-05-18T08:31:29.379Z,11.90
2018-05-18T08:34:00.456Z,13.45
2018-05-18T08:36:31.444Z,16.02
2018-05-18T08:39:02.555Z,13.98
2018-05-18T08:41:33.574Z,13.80
2018-05-18T08:44:04.762Z,14.23
2018-05-18T08:46:35.785Z,13.75
2018-05-18T08:49:06.804Z,11.90
2018-05-18T08:51:37.842Z,14.13
2018-05-18T08:54:08.991Z,10.07
2018-05-18T08:56:40.014Z,13.15
2018-05-18T08:59:11.042Z,14.43
2018-05-18T09:01:42.182Z,14.70
2018-05-18T09:04:13.178Z,15.23
2018-05-18T09:06:44.284Z,14.98
2018-05-18T09:09:15.290Z,11.57
2018-05-18T09:11:46.262Z,11.12
2018-05-18T09:14:17.279Z,11.40
2018-05-18T09:16:48.330Z,11.85
2018-05-18T09:19:19.330Z,15.05
2018-05-18T09:21:50.331Z,14.45
2018-05-18T09:24:21.387Z,14.35
2018-05-18T09:26:52.439Z,12.73
2018-05-18T09:29:23.509Z,11.90
2018-05-18T09:31:54.485Z,12.73
2018-05-18T09:34:25.477Z,15.15
2018-05-18T09:36:56.464Z,12.57
2018-05-18T09:39:27.519Z,12.05
2018-05-18T09:41:58.529Z,10.82
2018-05-18T09:44:29.557Z,11.07
2018-05-18T09:47:00.539Z,14.10
2018-05-18T09:49:31.561Z,13.35
2018-05-18T09:52:02.581Z,15.20
2018-05-18T09:54:33.817Z,12.93
2018-05-18T09:57:04.861Z,12.67
2018-05-18T09:59:35.850Z,15.52
2018-05-18T10:02:06.868Z,12.80
2018-05-18T10:04:37.898Z,14.32
2018-05-18T10:07:08.936Z,15.18
2018-05-18T10:09:39.921Z,16.75
2018-05-18T10:12:10.953Z,15.55
2018-05-18T10:14:41.992Z,12.13
2018-05-18T10:17:12.947Z,15.47
2018-05-18T10:19:43.974Z,16.12
2018-05-18T10:22:15.002Z,10.27
2018-05-18T10:24:46.016Z,11.15
2018-05-18T10:27:17.024Z,12.25
2018-05-18T10:29:48.050Z,12.50
2018-05-18T10:32:19.151Z,13.20
2018-05-18T10:34:50.172Z,13.35
2018-05-18T10:37:21.220Z,11.02
2018-05-18T10:39:52.229Z,12.43
2018-05-18T10:42:23.261Z,13.20
2018-05-18T10:44:54.244Z,12.55
2018-05-18T10:47:25.272Z,13.10
2018-05-18T10:49:56.297Z,11.30
2018-05-18T10:52:27.298Z,11.35
2018-05-18T10:54:58.320Z,12.77
2018-05-18T10:57:29.358Z,10.90
2018-05-18T11:00:00.390Z,12.13
2018-05-18T11:02:31.455Z,12.10
2018-05-18T11:05:02.470Z,12.37
2018-05-18T11:07:33.488Z,14.67
2018-05-18T11:10:04.471Z,11.13
2018-05-18T11:12:35.490Z,10.27
2018-05-18T11:15:06.463Z,12.83
2018-05-18T11:17:37.438Z,14.63
2018-05-18T11:20:08.490Z,11.27
2018-05-18T11:22:39.402Z,14.20
2018-05-18T11:25:10.373Z,16.83
2018-05-18T11:27:41.388Z,15.03
2018-05-18T11:30:12.397Z,10.77
2018-05-18T11:32:43.451Z,13.00
2018-05-18T11:35:14.392Z,10.30
2018-05-18T11:37:45.403Z,17.83
2018-05-18T11:40:16.401Z,12.90
2018-05-18T11:42:47.517Z,15.00
2018-05-18T11:45:18.544Z,12.63
2018-05-18T11:47:49.614Z,14.73
2018-05-18T11:50:20.638Z,10.80
2018-05-18T11:52:51.673Z,12.07
2018-05-18T11:55:22.688Z,14.73
2018-05-18T11:57:53.680Z,10.17
2018-05-18T12:00:24.712Z,13.27
2018-05-18T12:02:55.739Z,12.63
2018-05-18T12:05:26.731Z,18.67
2018-05-18T12:07:57.746Z,13.20
2018-05-18T12:10:28.758Z,14.17
2018-05-18T12:13:06.679Z,12.93
2018-05-18T12:15:37.742Z,12.97
2018-05-18T12:18:08.740Z,13.90
2018-05-18T12:20:39.756Z,12.83
2018-05-18T12:23:10.749Z,11.77
2018-05-18T12:25:41.741Z,10.90
2018-05-18T12:28:12.716Z,13.87
2018-05-18T12:30:43.748Z,11.63
2018-05-18T12:33:14.789Z,12.50
2018-05-18T12:35:45.801Z,9.73
2018-05-18T12:38:16.942Z,12.30
2018-05-18T12:40:47.821Z,10.87
2018-05-18T12:43:18.830Z,8.97
2018-05-18T12:45:49.867Z,10.80
2018-05-18T12:48:20.863Z,12.57
2018-05-18T12:50:51.848Z,12.00
2018-05-18T12:53:22.882Z,11.30
2018-05-18T12:55:53.864Z,10.73
2018-05-18T12:58:24.921Z,14.93
2018-05-18T13:00:55.910Z,8.97
2018-05-18T13:03:26.948Z,12.80
2018-05-18T13:05:57.985Z,9.67
2018-05-18T13:08:29.041Z,14.27
2018-05-18T13:11:00.064Z,15.87
2018-05-18T13:13:31.030Z,16.17
2018-05-18T13:16:02.139Z,11.17
2018-05-18T13:18:33.140Z,10.27
2018-05-18T13:21:04.168Z,9.83
2018-05-18T13:23:35.218Z,8.87
2018-05-18T13:26:06.195Z,11.93
2018-05-18T13:28:37.240Z,11.10
2018-05-18T13:31:08.267Z,13.07
2018-05-18T13:33:39.254Z,11.40
2018-05-18T13:36:10.248Z,12.30
2018-05-18T13:38:41.296Z,12.17
2018-05-18T13:41:12.296Z,12.53
2018-05-18T13:43:43.373Z,10.93
2018-05-18T13:46:14.384Z,10.37
2018-05-18T13:48:45.352Z,15.13
2018-05-18T13:51:16.354Z,15.07
2018-05-18T13:53:47.381Z,11.40
2018-05-18T13:56:18.403Z,12.20
2018-05-18T13:58:49.421Z,9.00
2018-05-18T14:01:20.468Z,10.27
2018-05-18T14:03:51.442Z,10.17
2018-05-18T14:06:22.489Z,10.30
2018-05-18T14:08:53.500Z,12.00
2018-05-18T14:11:24.493Z,11.77
2018-05-18T14:13:55.536Z,8.13
2018-05-18T14:16:26.537Z,13.30
2018-05-18T14:18:57.784Z,10.17
2018-05-18T14:21:28.782Z,12.70
2018-05-18T14:23:59.819Z,13.03
2018-05-18T14:26:30.952Z,9.67
2018-05-18T14:29:01.857Z,13.07
2018-05-18T14:31:32.903Z,12.23
2018-05-18T14:34:04.004Z,13.20
2018-05-18T14:36:35.012Z,10.67
2018-05-18T14:39:06.025Z,12.47
2018-05-18T14:41:37.054Z,13.53
2018-05-18T14:44:08.120Z,13.93
2018-05-18T14:46:39.142Z,13.27
2018-05-18T14:49:10.144Z,11.80
2018-05-18T14:51:41.168Z,12.07
2018-05-18T14:54:12.185Z,13.30
2018-05-18T14:56:43.241Z,13.37
2018-05-18T14:59:14.248Z,15.83
2018-05-18T15:01:45.255Z,10.30
2018-05-18T15:04:16.277Z,15.17
2018-05-18T15:06:47.272Z,11.80
2018-05-18T15:09:18.258Z,11.03
2018-05-18T15:11:56.328Z,15.50
2018-05-18T15:14:27.344Z,13.37
2018-05-18T15:16:58.358Z,12.27
2018-05-18T15:19:29.386Z,12.80
2018-05-18T15:22:00.345Z,11.50
2018-05-18T15:24:31.344Z,19.27
2018-05-18T15:27:02.386Z,12.97
2018-05-18T15:29:33.428Z,13.23
2018-05-18T15:32:04.510Z,12.03
2018-05-18T15:34:35.550Z,15.53
2018-05-18T15:37:06.558Z,17.13
2018-05-18T15:39:37.587Z,16.10
2018-05-18T15:42:08.595Z,12.80
2018-05-18T15:44:39.659Z,12.20
2018-05-18T15:47:10.659Z,15.33
2018-05-18T15:49:41.689Z,11.63
2018-05-18T15:52:12.771Z,13.33
2018-05-18T15:54:43.741Z,12.43
2018-05-18T15:57:14.794Z,13.70
2018-05-18T15:59:45.851Z,12.23
2018-05-18T16:02:16.842Z,13.27
2018-05-18T16:04:47.842Z,11.23
2018-05-18T16:07:18.920Z,11.20
2018-05-18T16:09:49.920Z,10.63
2018-05-18T16:12:20.936Z,12.40
2018-05-18T16:14:52.072Z,13.40
2018-05-18T16:17:23.108Z,12.13
2018-05-18T16:19:54.089Z,15.27
2018-05-18T16:22:25.124Z,9.40
2018-05-18T16:24:56.095Z,14.50
2018-05-18T16:27:27.129Z,11.87
2018-05-18T16:29:58.176Z,13.07
2018-05-18T16:32:29.215Z,10.07
2018-05-18T16:35:00.222Z,9.47
2018-05-18T16:37:31.268Z,11.03
2018-05-18T16:40:02.338Z,15.70
2018-05-18T16:42:33.359Z,13.50
2018-05-18T16:45:04.393Z,10.90
2018-05-18T16:47:35.416Z,13.20
2018-05-18T16:52:42.149Z,12.70
2018-05-18T16:55:13.130Z,14.90
2018-05-18T16:57:44.251Z,11.20
2018-05-18T17:00:15.233Z,10.40
2018-05-18T17:02:46.296Z,9.50
2018-05-18T17:05:17.358Z,12.60
2018-05-18T17:07:48.389Z,11.33
2018-05-18T17:10:19.416Z,10.80
2018-05-18T17:12:50.433Z,11.27
2018-05-18T17:15:21.422Z,15.67
2018-05-18T17:17:52.456Z,12.50
2018-05-18T17:20:23.438Z,10.23
2018-05-18T17:22:54.471Z,12.27
2018-05-18T17:25:25.511Z,14.70
2018-05-18T17:27:56.539Z,15.40
2018-05-18T17:30:28.232Z,13.73
2018-05-18T17:32:59.239Z,13.80
2018-05-18T17:35:30.229Z,12.70
2018-05-18T17:38:01.202Z,11.33
2018-05-18T17:40:32.267Z,11.90
2018-05-18T17:43:03.290Z,11.37
2018-05-18T17:45:42.008Z,12.67
2018-05-18T17:48:13.205Z,13.83
2018-05-18T17:50:44.375Z,13.50
2018-05-18T17:53:15.530Z,13.87
2018-05-18T17:55:46.703Z,13.27
2018-05-18T17:58:17.914Z,15.67
2018-05-18T18:00:49.072Z,11.47
2018-05-18T18:03:20.346Z,13.37
2018-05-18T18:05:51.407Z,13.20
2018-05-18T18:08:22.789Z,12.40
2018-05-18T18:10:54.004Z,16.47
2018-05-18T18:13:25.153Z,15.57
2018-05-18T18:15:56.290Z,14.10
2018-05-18T18:18:27.428Z,15.07
2018-05-18T18:20:58.550Z,13.57
2018-05-18T18:23:30.629Z,16.10
2018-05-18T18:26:01.643Z,13.90
2018-05-18T18:28:32.799Z,17.53
2018-05-18T18:31:03.768Z,18.00
2018-05-18T18:33:34.814Z,20.73
2018-05-18T18:36:05.852Z,16.43
2018-05-18T18:38:36.910Z,18.30
2018-05-18T18:41:07.920Z,12.77
2018-05-18T18:43:38.919Z,15.40
2018-05-18T18:46:09.945Z,16.47
2018-05-18T18:48:40.923Z,12.17
2018-05-18T18:51:11.942Z,13.60
2018-05-18T18:53:42.989Z,13.83
2018-05-18T18:56:14.053Z,18.57
2018-05-18T18:58:45.080Z,15.33
2018-05-18T19:01:16.034Z,14.07
2018-05-18T19:03:47.035Z,14.60
2018-05-18T19:06:18.118Z,13.10
2018-05-18T19:08:49.082Z,15.17
2018-05-18T19:11:20.117Z,15.37
2018-05-18T19:13:51.095Z,26.50
2018-05-18T19:16:22.130Z,17.43
2018-05-18T19:18:53.154Z,16.90
2018-05-18T19:21:24.178Z,15.10
2018-05-18T19:23:55.159Z,14.43
2018-05-18T19:26:26.162Z,12.65
2018-05-18T19:28:57.186Z,12.87
2018-05-18T19:31:28.217Z,13.57
2018-05-18T19:33:59.212Z,11.77
2018-05-18T19:36:30.301Z,18.80
2018-05-18T19:39:01.293Z,13.93
2018-05-18T19:41:32.328Z,14.67
2018-05-18T19:44:03.377Z,11.10
2018-05-18T19:46:34.364Z,13.87
2018-05-18T19:49:05.403Z,11.07
2018-05-18T19:51:36.430Z,11.93
2018-05-18T19:54:07.505Z,16.23
2018-05-18T19:56:38.512Z,12.30
2018-05-18T19:59:09.575Z,11.93
2018-05-18T20:01:40.566Z,14.33
2018-05-18T20:04:11.881Z,11.13
2018-05-18T20:06:42.917Z,11.27
2018-05-18T20:09:13.886Z,9.70
2018-05-18T20:11:44.901Z,13.30
2018-05-18T20:14:16.065Z,11.40
2018-05-18T20:16:47.089Z,11.53
2018-05-18T20:19:18.063Z,8.70
2018-05-18T20:21:49.048Z,10.07
2018-05-18T20:24:20.064Z,11.13
2018-05-18T20:26:51.069Z,12.20
2018-05-18T20:29:22.104Z,10.13
2018-05-18T20:31:53.131Z,10.77
2018-05-18T20:34:24.123Z,10.07
2018-05-18T20:36:55.197Z,10.20
2018-05-18T20:39:26.149Z,10.33
2018-05-18T20:41:57.138Z,10.33
2018-05-18T20:44:28.163Z,10.13
2018-05-18T20:46:59.186Z,12.07
2018-05-18T20:49:30.155Z,11.00
2018-05-18T20:52:01.183Z,10.03
2018-05-18T20:54:32.201Z,8.40
2018-05-18T20:57:03.232Z,9.83
2018-05-18T20:59:34.230Z,10.70
2018-05-18T21:02:05.252Z,10.33
2018-05-18T21:04:36.280Z,11.33
2018-05-18T21:07:07.293Z,11.13
2018-05-18T21:09:38.303Z,9.90
2018-05-18T21:12:09.364Z,13.10
2018-05-18T21:14:40.428Z,10.23
2018-05-18T21:17:11.552Z,10.73
2018-05-18T21:19:42.543Z,10.80
2018-05-18T21:22:13.578Z,11.37
2018-05-18T21:24:44.574Z,11.67
2018-05-18T21:27:15.612Z,9.53
2018-05-18T21:29:46.726Z,10.80
2018-05-18T21:32:17.760Z,12.03
2018-05-18T21:34:48.732Z,13.80
2018-05-18T21:37:19.739Z,16.60
2018-05-18T21:39:50.747Z,11.10
2018-05-18T21:42:21.774Z,11.53
2018-05-18T21:44:52.759Z,10.90
2018-05-18T21:47:23.732Z,11.17
2018-05-18T21:49:54.775Z,12.23
2018-05-18T21:52:25.740Z,12.83
2018-05-18T21:54:56.813Z,11.20
2018-05-18T21:57:27.789Z,9.33
2018-05-18T21:59:58.870Z,10.13
2018-05-18T22:02:29.812Z,11.37
2018-05-18T22:05:00.811Z,13.07
2018-05-18T22:07:31.776Z,10.77
2018-05-18T22:10:02.851Z,10.63
2018-05-18T22:12:33.847Z,10.67
2018-05-18T22:15:04.940Z,10.23
2018-05-18T22:17:35.915Z,9.77
2018-05-18T22:20:06.936Z,11.97
2018-05-18T22:22:37.944Z,9.73
2018-05-18T22:25:15.866Z,11.87
2018-05-18T22:27:46.869Z,11.27
2018-05-18T22:30:17.891Z,12.53
2018-05-18T22:32:48.902Z,14.10
2018-05-18T22:35:19.890Z,10.80
2018-05-18T22:37:50.920Z,13.57
2018-05-18T22:40:21.950Z,12.50
2018-05-18T22:42:52.973Z,10.30
2018-05-18T22:45:24.027Z,9.97
2018-05-18T22:47:55.020Z,10.17
2018-05-18T22:50:26.055Z,14.77
2018-05-18T22:52:57.088Z,12.10
2018-05-18T22:55:28.180Z,10.80
2018-05-18T22:57:59.187Z,12.00
2018-05-18T23:00:30.220Z,10.63
2018-05-18T23:03:01.254Z,13.27
2018-05-18T23:05:32.248Z,10.60
2018-05-18T23:08:03.279Z,12.97
2018-05-18T23:10:34.308Z,10.17
2018-05-18T23:13:05.328Z,10.07
2018-05-18T23:15:36.369Z,11.30
2018-05-18T23:18:07.396Z,11.10
2018-05-18T23:20:38.414Z,9.90
2018-05-18T23:23:09.457Z,12.43
2018-05-18T23:25:40.489Z,12.03
2018-05-18T23:28:11.493Z,11.03
2018-05-18T23:30:42.554Z,11.47
2018-05-18T23:33:13.552Z,11.57
2018-05-18T23:35:44.555Z,12.27
2018-05-18T23:38:15.577Z,10.83
2018-05-18T23:40:46.618Z,12.87
2018-05-18T23:43:17.610Z,12.73
2018-05-18T23:45:48.598Z,11.40
2018-05-18T23:48:19.592Z,12.63
2018-05-18T23:50:50.599Z,12.60
2018-05-18T23:53:21.629Z,13.40
2018-05-18T23:55:52.602Z,12.40
2018-05-18T23:58:23.597Z,12.77
